sensor_id;sensor_type;location;lat;lon;timestamp;P1;durP1;ratioP1;P2;durP2;ratioP2
8177;SDS011;4130;48.740;9.132;2022-09-03T00:01:24;2.17;;;1.93;;
8177;SDS011;4130;48.740;9.132;2022-09-03T00:03:58;2.30;;;2.10;;
8177;SDS011;4130;48.740;9.132;2022-09-03T00:06:35;2.13;;;1.63;;
8177;SDS011;4130;48.740;9.132;2022-09-03T00:09:08;4.00;;;1.90;;
8177;SDS011;4130;48.740;9.132;2022-09-03T00:11:42;3.03;;;2.00;;
8177;SDS011;4130;48.740;9.132;2022-09-03T00:14:15;2.67;;;1.77;;
8177;SDS011;4130;48.740;9.132;2022-09-03T00:16:48;2.00;;;1.70;;
8177;SDS011;4130;48.740;9.132;2022-09-03T00:19:17;3.40;;;1.70;;
8177;SDS011;4130;48.740;9.132;2022-09-03T00:21:50;1.57;;;1.47;;
8177;SDS011;4130;48.740;9.132;2022-09-03T00:24:21;1.80;;;1.70;;
8177;SDS011;4130;48.740;9.132;2022-09-03T00:26:51;1.75;;;1.63;;
8177;SDS011;4130;48.740;9.132;2022-09-03T00:29:23;1.60;;;1.50;;
8177;SDS011;4130;48.740;9.132;2022-09-03T00:31:53;1.77;;;1.50;;
8177;SDS011;4130;48.740;9.132;2022-09-03T00:34:25;1.80;;;1.60;;
8177;SDS011;4130;48.740;9.132;2022-09-03T00:36:56;2.20;;;1.77;;
8177;SDS011;4130;48.740;9.132;2022-09-03T00:39:24;2.40;;;2.20;;
8177;SDS011;4130;48.740;9.132;2022-09-03T00:41:56;2.92;;;2.30;;
8177;SDS011;4130;48.740;9.132;2022-09-03T00:44:39;2.40;;;2.20;;
8177;SDS011;4130;48.740;9.132;2022-09-03T00:47:29;2.72;;;2.35;;
8177;SDS011;4130;48.740;9.132;2022-09-03T00:50:06;2.33;;;2.00;;
8177;SDS011;4130;48.740;9.132;2022-09-03T00:52:49;4.00;;;2.20;;
8177;SDS011;4130;48.740;9.132;2022-09-03T00:55:27;2.85;;;2.33;;
8177;SDS011;4130;48.740;9.132;2022-09-03T00:58:07;2.17;;;1.92;;
8177;SDS011;4130;48.740;9.132;2022-09-03T01:00:56;4.80;;;2.43;;
8177;SDS011;4130;48.740;9.132;2022-09-03T01:03:25;5.55;;;2.10;;
8177;SDS011;4130;48.740;9.132;2022-09-03T01:06:07;3.20;;;1.80;;
8177;SDS011;4130;48.740;9.132;2022-09-03T01:08:47;2.13;;;1.92;;
8177;SDS011;4130;48.740;9.132;2022-09-03T01:11:36;2.88;;;1.83;;
8177;SDS011;4130;48.740;9.132;2022-09-03T01:14:13;2.35;;;2.15;;
8177;SDS011;4130;48.740;9.132;2022-09-03T01:16:52;2.40;;;1.90;;
8177;SDS011;4130;48.740;9.132;2022-09-03T01:22:34;2.28;;;1.70;;
8177;SDS011;4130;48.740;9.132;2022-09-03T01:25:33;1.65;;;1.40;;
8177;SDS011;4130;48.740;9.132;2022-09-03T01:31:10;1.85;;;1.70;;
8177;SDS011;4130;48.740;9.132;2022-09-03T01:33:47;1.75;;;1.65;;
8177;SDS011;4130;48.740;9.132;2022-09-03T01:36:22;1.85;;;1.73;;
8177;SDS011;4130;48.740;9.132;2022-09-03T01:38:58;1.83;;;1.60;;
8177;SDS011;4130;48.740;9.132;2022-09-03T01:41:29;1.83;;;1.70;;
8177;SDS011;4130;48.740;9.132;2022-09-03T01:44:41;1.95;;;1.67;;
8177;SDS011;4130;48.740;9.132;2022-09-03T01:47:32;2.22;;;1.80;;
8177;SDS011;4130;48.740;9.132;2022-09-03T01:50:19;5.55;;;1.90;;
8177;SDS011;4130;48.740;9.132;2022-09-03T01:52:52;2.33;;;1.50;;
8177;SDS011;4130;48.740;9.132;2022-09-03T01:55:27;2.38;;;1.63;;
8177;SDS011;4130;48.740;9.132;2022-09-03T01:57:58;1.65;;;1.55;;
8177;SDS011;4130;48.740;9.132;2022-09-03T02:00:33;1.50;;;1.40;;
8177;SDS011;4130;48.740;9.132;2022-09-03T02:03:05;1.80;;;1.63;;
8177;SDS011;4130;48.740;9.132;2022-09-03T02:05:35;2.53;;;1.60;;
8177;SDS011;4130;48.740;9.132;2022-09-03T02:08:04;2.10;;;1.77;;
8177;SDS011;4130;48.740;9.132;2022-09-03T02:10:33;2.67;;;1.50;;
8177;SDS011;4130;48.740;9.132;2022-09-03T02:13:06;2.30;;;1.58;;
8177;SDS011;4130;48.740;9.132;2022-09-03T02:15:37;1.60;;;1.50;;
8177;SDS011;4130;48.740;9.132;2022-09-03T02:18:09;1.77;;;1.52;;
8177;SDS011;4130;48.740;9.132;2022-09-03T02:20:39;1.50;;;1.40;;
8177;SDS011;4130;48.740;9.132;2022-09-03T02:23:07;2.03;;;1.60;;
8177;SDS011;4130;48.740;9.132;2022-09-03T02:25:36;2.05;;;1.50;;
8177;SDS011;4130;48.740;9.132;2022-09-03T02:28:05;1.52;;;1.30;;
8177;SDS011;4130;48.740;9.132;2022-09-03T02:30:34;1.50;;;1.40;;
8177;SDS011;4130;48.740;9.132;2022-09-03T02:33:02;4.60;;;1.80;;
8177;SDS011;4130;48.740;9.132;2022-09-03T02:35:29;2.70;;;1.60;;
8177;SDS011;4130;48.740;9.132;2022-09-03T02:37:56;2.20;;;1.50;;
8177;SDS011;4130;48.740;9.132;2022-09-03T02:40:33;1.40;;;1.30;;
8177;SDS011;4130;48.740;9.132;2022-09-03T02:43:00;2.70;;;1.50;;
8177;SDS011;4130;48.740;9.132;2022-09-03T02:45:28;1.70;;;1.60;;
8177;SDS011;4130;48.740;9.132;2022-09-03T02:47:56;2.23;;;1.47;;
8177;SDS011;4130;48.740;9.132;2022-09-03T02:50:26;1.90;;;1.43;;
8177;SDS011;4130;48.740;9.132;2022-09-03T02:52:53;1.97;;;1.43;;
8177;SDS011;4130;48.740;9.132;2022-09-03T02:55:20;1.57;;;1.47;;
8177;SDS011;4130;48.740;9.132;2022-09-03T02:57:47;2.43;;;1.70;;
8177;SDS011;4130;48.740;9.132;2022-09-03T03:00:14;1.87;;;1.73;;
8177;SDS011;4130;48.740;9.132;2022-09-03T03:02:42;3.73;;;1.63;;
8177;SDS011;4130;48.740;9.132;2022-09-03T03:05:10;1.83;;;1.47;;
8177;SDS011;4130;48.740;9.132;2022-09-03T03:07:45;1.80;;;1.60;;
8177;SDS011;4130;48.740;9.132;2022-09-03T03:10:12;1.67;;;1.57;;
8177;SDS011;4130;48.740;9.132;2022-09-03T03:12:39;1.60;;;1.50;;
8177;SDS011;4130;48.740;9.132;2022-09-03T03:15:06;1.70;;;1.60;;
8177;SDS011;4130;48.740;9.132;2022-09-03T03:17:33;2.50;;;2.20;;
8177;SDS011;4130;48.740;9.132;2022-09-03T03:20:00;4.50;;;3.87;;
8177;SDS011;4130;48.740;9.132;2022-09-03T03:22:27;2.83;;;2.50;;
8177;SDS011;4130;48.740;9.132;2022-09-03T03:24:55;3.03;;;2.57;;
8177;SDS011;4130;48.740;9.132;2022-09-03T03:27:22;3.57;;;2.30;;
8177;SDS011;4130;48.740;9.132;2022-09-03T03:29:49;1.50;;;1.40;;
8177;SDS011;4130;48.740;9.132;2022-09-03T03:32:16;3.30;;;1.70;;
8177;SDS011;4130;48.740;9.132;2022-09-03T03:34:43;2.63;;;2.07;;
8177;SDS011;4130;48.740;9.132;2022-09-03T03:37:09;1.83;;;1.73;;
8177;SDS011;4130;48.740;9.132;2022-09-03T03:39:36;1.33;;;1.33;;
8177;SDS011;4130;48.740;9.132;2022-09-03T03:42:04;1.80;;;1.70;;
8177;SDS011;4130;48.740;9.132;2022-09-03T03:44:31;1.97;;;1.87;;
8177;SDS011;4130;48.740;9.132;2022-09-03T03:46:58;3.00;;;1.60;;
8177;SDS011;4130;48.740;9.132;2022-09-03T03:49:25;1.80;;;1.70;;
8177;SDS011;4130;48.740;9.132;2022-09-03T03:51:52;5.33;;;3.90;;
8177;SDS011;4130;48.740;9.132;2022-09-03T03:54:18;7.67;;;5.70;;
8177;SDS011;4130;48.740;9.132;2022-09-03T03:56:46;7.03;;;5.50;;
8177;SDS011;4130;48.740;9.132;2022-09-03T03:59:14;8.87;;;6.00;;
8177;SDS011;4130;48.740;9.132;2022-09-03T04:01:41;6.27;;;4.43;;
8177;SDS011;4130;48.740;9.132;2022-09-03T04:04:08;5.03;;;4.20;;
8177;SDS011;4130;48.740;9.132;2022-09-03T04:06:35;5.00;;;4.00;;
8177;SDS011;4130;48.740;9.132;2022-09-03T04:09:02;3.73;;;3.43;;
8177;SDS011;4130;48.740;9.132;2022-09-03T04:11:29;6.13;;;3.40;;
8177;SDS011;4130;48.740;9.132;2022-09-03T04:13:55;3.83;;;3.10;;
8177;SDS011;4130;48.740;9.132;2022-09-03T04:16:24;3.43;;;2.67;;
8177;SDS011;4130;48.740;9.132;2022-09-03T04:18:53;6.33;;;3.17;;
8177;SDS011;4130;48.740;9.132;2022-09-03T04:21:21;5.63;;;3.00;;
8177;SDS011;4130;48.740;9.132;2022-09-03T04:23:49;3.93;;;3.40;;
8177;SDS011;4130;48.740;9.132;2022-09-03T04:26:17;5.40;;;4.00;;
8177;SDS011;4130;48.740;9.132;2022-09-03T04:28:45;5.10;;;3.77;;
8177;SDS011;4130;48.740;9.132;2022-09-03T04:31:13;4.60;;;4.20;;
8177;SDS011;4130;48.740;9.132;2022-09-03T04:33:42;5.50;;;3.73;;
8177;SDS011;4130;48.740;9.132;2022-09-03T04:36:09;3.40;;;3.10;;
8177;SDS011;4130;48.740;9.132;2022-09-03T04:38:38;6.40;;;3.87;;
8177;SDS011;4130;48.740;9.132;2022-09-03T04:41:06;4.63;;;4.00;;
8177;SDS011;4130;48.740;9.132;2022-09-03T04:43:34;6.37;;;4.00;;
8177;SDS011;4130;48.740;9.132;2022-09-03T04:46:03;4.70;;;4.20;;
8177;SDS011;4130;48.740;9.132;2022-09-03T04:48:31;7.07;;;4.57;;
8177;SDS011;4130;48.740;9.132;2022-09-03T04:51:02;6.73;;;4.70;;
8177;SDS011;4130;48.740;9.132;2022-09-03T04:53:31;5.10;;;3.60;;
8177;SDS011;4130;48.740;9.132;2022-09-03T04:55:58;4.17;;;3.00;;
8177;SDS011;4130;48.740;9.132;2022-09-03T04:58:26;3.00;;;2.70;;
8177;SDS011;4130;48.740;9.132;2022-09-03T05:00:52;7.30;;;2.40;;
8177;SDS011;4130;48.740;9.132;2022-09-03T05:03:19;3.40;;;2.40;;
8177;SDS011;4130;48.740;9.132;2022-09-03T05:05:55;2.60;;;2.20;;
8177;SDS011;4130;48.740;9.132;2022-09-03T05:08:24;3.77;;;2.47;;
8177;SDS011;4130;48.740;9.132;2022-09-03T05:10:56;2.63;;;2.43;;
8177;SDS011;4130;48.740;9.132;2022-09-03T05:13:24;2.97;;;2.50;;
8177;SDS011;4130;48.740;9.132;2022-09-03T05:15:52;2.40;;;2.20;;
8177;SDS011;4130;48.740;9.132;2022-09-03T05:18:23;3.90;;;2.80;;
8177;SDS011;4130;48.740;9.132;2022-09-03T05:20:56;3.17;;;2.30;;
8177;SDS011;4130;48.740;9.132;2022-09-03T05:23:25;3.60;;;2.17;;
8177;SDS011;4130;48.740;9.132;2022-09-03T05:25:55;3.97;;;2.30;;
8177;SDS011;4130;48.740;9.132;2022-09-03T05:28:23;3.47;;;2.07;;
8177;SDS011;4130;48.740;9.132;2022-09-03T05:30:58;3.20;;;2.20;;
8177;SDS011;4130;48.740;9.132;2022-09-03T05:33:25;2.75;;;2.00;;
8177;SDS011;4130;48.740;9.132;2022-09-03T05:35:53;3.28;;;2.10;;
8177;SDS011;4130;48.740;9.132;2022-09-03T05:38:20;2.67;;;2.00;;
8177;SDS011;4130;48.740;9.132;2022-09-03T05:40:48;3.05;;;2.20;;
8177;SDS011;4130;48.740;9.132;2022-09-03T05:43:14;2.83;;;2.00;;
8177;SDS011;4130;48.740;9.132;2022-09-03T05:45:42;3.65;;;1.95;;
8177;SDS011;4130;48.740;9.132;2022-09-03T05:48:08;1.98;;;1.85;;
8177;SDS011;4130;48.740;9.132;2022-09-03T05:50:35;4.28;;;2.45;;
8177;SDS011;4130;48.740;9.132;2022-09-03T05:53:02;2.60;;;1.95;;
8177;SDS011;4130;48.740;9.132;2022-09-03T05:55:29;2.05;;;1.85;;
8177;SDS011;4130;48.740;9.132;2022-09-03T05:57:57;1.80;;;1.70;;
8177;SDS011;4130;48.740;9.132;2022-09-03T06:00:24;1.70;;;1.60;;
8177;SDS011;4130;48.740;9.132;2022-09-03T06:02:52;3.05;;;2.08;;
8177;SDS011;4130;48.740;9.132;2022-09-03T06:05:19;2.00;;;1.80;;
8177;SDS011;4130;48.740;9.132;2022-09-03T06:07:46;5.38;;;2.00;;
8177;SDS011;4130;48.740;9.132;2022-09-03T06:10:13;4.53;;;1.98;;
8177;SDS011;4130;48.740;9.132;2022-09-03T06:12:42;5.22;;;1.88;;
8177;SDS011;4130;48.740;9.132;2022-09-03T06:15:15;2.97;;;1.88;;
8177;SDS011;4130;48.740;9.132;2022-09-03T06:17:42;3.42;;;2.10;;
8177;SDS011;4130;48.740;9.132;2022-09-03T06:20:09;3.33;;;2.33;;
8177;SDS011;4130;48.740;9.132;2022-09-03T06:22:36;2.22;;;2.03;;
8177;SDS011;4130;48.740;9.132;2022-09-03T06:25:03;2.35;;;1.92;;
8177;SDS011;4130;48.740;9.132;2022-09-03T06:27:30;3.03;;;2.13;;
8177;SDS011;4130;48.740;9.132;2022-09-03T06:29:57;2.53;;;2.00;;
8177;SDS011;4130;48.740;9.132;2022-09-03T06:32:25;2.33;;;2.08;;
8177;SDS011;4130;48.740;9.132;2022-09-03T06:34:53;3.30;;;2.08;;
8177;SDS011;4130;48.740;9.132;2022-09-03T06:37:20;3.15;;;2.40;;
8177;SDS011;4130;48.740;9.132;2022-09-03T06:39:46;3.15;;;2.20;;
8177;SDS011;4130;48.740;9.132;2022-09-03T06:42:14;3.35;;;2.55;;
8177;SDS011;4130;48.740;9.132;2022-09-03T06:44:42;2.40;;;2.20;;
8177;SDS011;4130;48.740;9.132;2022-09-03T06:47:09;5.95;;;2.42;;
8177;SDS011;4130;48.740;9.132;2022-09-03T06:49:37;2.60;;;2.40;;
8177;SDS011;4130;48.740;9.132;2022-09-03T06:52:04;2.85;;;2.65;;
8177;SDS011;4130;48.740;9.132;2022-09-03T06:54:31;3.67;;;2.70;;
8177;SDS011;4130;48.740;9.132;2022-09-03T06:56:57;2.92;;;2.40;;
8177;SDS011;4130;48.740;9.132;2022-09-03T06:59:24;2.33;;;2.20;;
8177;SDS011;4130;48.740;9.132;2022-09-03T07:01:52;2.67;;;2.47;;
8177;SDS011;4130;48.740;9.132;2022-09-03T07:04:19;4.05;;;2.30;;
8177;SDS011;4130;48.740;9.132;2022-09-03T07:06:50;3.28;;;2.30;;
8177;SDS011;4130;48.740;9.132;2022-09-03T07:09:17;4.15;;;2.70;;
8177;SDS011;4130;48.740;9.132;2022-09-03T07:11:43;2.75;;;2.55;;
8177;SDS011;4130;48.740;9.132;2022-09-03T07:14:14;2.80;;;2.60;;
8177;SDS011;4130;48.740;9.132;2022-09-03T07:16:41;5.40;;;2.38;;
8177;SDS011;4130;48.740;9.132;2022-09-03T07:19:10;4.65;;;2.70;;
8177;SDS011;4130;48.740;9.132;2022-09-03T07:21:37;3.45;;;2.70;;
8177;SDS011;4130;48.740;9.132;2022-09-03T07:24:07;2.80;;;2.60;;
8177;SDS011;4130;48.740;9.132;2022-09-03T07:26:35;3.75;;;2.55;;
8177;SDS011;4130;48.740;9.132;2022-09-03T07:29:04;2.70;;;2.47;;
8177;SDS011;4130;48.740;9.132;2022-09-03T07:31:33;3.22;;;2.25;;
8177;SDS011;4130;48.740;9.132;2022-09-03T07:34:02;2.40;;;2.20;;
8177;SDS011;4130;48.740;9.132;2022-09-03T07:36:35;3.10;;;2.60;;
8177;SDS011;4130;48.740;9.132;2022-09-03T07:39:07;5.15;;;2.90;;
8177;SDS011;4130;48.740;9.132;2022-09-03T07:41:35;4.22;;;2.65;;
8177;SDS011;4130;48.740;9.132;2022-09-03T07:44:02;2.58;;;2.35;;
8177;SDS011;4130;48.740;9.132;2022-09-03T07:46:31;3.17;;;2.65;;
8177;SDS011;4130;48.740;9.132;2022-09-03T07:49:01;2.67;;;2.10;;
8177;SDS011;4130;48.740;9.132;2022-09-03T07:51:30;3.25;;;2.67;;
8177;SDS011;4130;48.740;9.132;2022-09-03T07:53:59;2.55;;;2.30;;
8177;SDS011;4130;48.740;9.132;2022-09-03T07:56:30;3.08;;;2.78;;
8177;SDS011;4130;48.740;9.132;2022-09-03T07:58:57;2.75;;;2.30;;
8177;SDS011;4130;48.740;9.132;2022-09-03T08:01:25;3.10;;;2.35;;
8177;SDS011;4130;48.740;9.132;2022-09-03T08:03:55;2.50;;;2.30;;
8177;SDS011;4130;48.740;9.132;2022-09-03T08:06:22;2.60;;;2.40;;
8177;SDS011;4130;48.740;9.132;2022-09-03T08:08:53;3.15;;;2.40;;
8177;SDS011;4130;48.740;9.132;2022-09-03T08:11:22;3.03;;;2.72;;
8177;SDS011;4130;48.740;9.132;2022-09-03T08:13:54;2.58;;;2.25;;
8177;SDS011;4130;48.740;9.132;2022-09-03T08:16:25;3.38;;;2.25;;
8177;SDS011;4130;48.740;9.132;2022-09-03T08:18:52;2.20;;;2.10;;
8177;SDS011;4130;48.740;9.132;2022-09-03T08:21:21;5.28;;;2.20;;
8177;SDS011;4130;48.740;9.132;2022-09-03T08:23:49;2.28;;;2.15;;
8177;SDS011;4130;48.740;9.132;2022-09-03T08:26:17;3.78;;;2.20;;
8177;SDS011;4130;48.740;9.132;2022-09-03T08:28:47;2.58;;;2.38;;
8177;SDS011;4130;48.740;9.132;2022-09-03T08:31:16;2.80;;;2.30;;
8177;SDS011;4130;48.740;9.132;2022-09-03T08:33:44;2.22;;;2.10;;
8177;SDS011;4130;48.740;9.132;2022-09-03T08:36:13;2.30;;;2.10;;
8177;SDS011;4130;48.740;9.132;2022-09-03T08:38:42;2.75;;;2.53;;
8177;SDS011;4130;48.740;9.132;2022-09-03T08:41:11;2.50;;;2.30;;
8177;SDS011;4130;48.740;9.132;2022-09-03T08:46:40;2.47;;;2.20;;
8177;SDS011;4130;48.740;9.132;2022-09-03T08:49:14;2.63;;;2.10;;
8177;SDS011;4130;48.740;9.132;2022-09-03T08:51:47;2.38;;;2.17;;
8177;SDS011;4130;48.740;9.132;2022-09-03T08:54:17;3.97;;;2.20;;
8177;SDS011;4130;48.740;9.132;2022-09-03T08:56:45;6.03;;;1.65;;
8177;SDS011;4130;48.740;9.132;2022-09-03T08:59:12;3.65;;;1.77;;
8177;SDS011;4130;48.740;9.132;2022-09-03T09:01:48;3.90;;;1.95;;
8177;SDS011;4130;48.740;9.132;2022-09-03T09:04:25;1.85;;;1.75;;
8177;SDS011;4130;48.740;9.132;2022-09-03T09:07:04;2.33;;;2.13;;
8177;SDS011;4130;48.740;9.132;2022-09-03T09:09:39;1.95;;;1.80;;
8177;SDS011;4130;48.740;9.132;2022-09-03T09:12:15;5.43;;;2.03;;
8177;SDS011;4130;48.740;9.132;2022-09-03T09:14:49;2.15;;;1.95;;
8177;SDS011;4130;48.740;9.132;2022-09-03T09:17:33;3.55;;;2.17;;
8177;SDS011;4130;48.740;9.132;2022-09-03T09:20:13;2.30;;;2.03;;
8177;SDS011;4130;48.740;9.132;2022-09-03T09:22:50;2.28;;;2.00;;
8177;SDS011;4130;48.740;9.132;2022-09-03T09:25:21;2.33;;;1.92;;
8177;SDS011;4130;48.740;9.132;2022-09-03T09:27:51;2.08;;;1.90;;
8177;SDS011;4130;48.740;9.132;2022-09-03T09:30:23;3.20;;;2.50;;
8177;SDS011;4130;48.740;9.132;2022-09-03T09:32:52;2.45;;;2.10;;
8177;SDS011;4130;48.740;9.132;2022-09-03T09:35:20;3.78;;;1.92;;
8177;SDS011;4130;48.740;9.132;2022-09-03T09:37:48;5.05;;;1.85;;
8177;SDS011;4130;48.740;9.132;2022-09-03T09:40:23;1.88;;;1.77;;
8177;SDS011;4130;48.740;9.132;2022-09-03T09:43:06;2.70;;;2.03;;
8177;SDS011;4130;48.740;9.132;2022-09-03T09:45:36;3.42;;;2.00;;
8177;SDS011;4130;48.740;9.132;2022-09-03T09:48:08;2.35;;;2.03;;
8177;SDS011;4130;48.740;9.132;2022-09-03T09:50:40;1.83;;;1.73;;
8177;SDS011;4130;48.740;9.132;2022-09-03T09:53:08;2.25;;;2.10;;
8177;SDS011;4130;48.740;9.132;2022-09-03T09:55:50;2.25;;;2.10;;
8177;SDS011;4130;48.740;9.132;2022-09-03T09:58:18;2.10;;;1.90;;
8177;SDS011;4130;48.740;9.132;2022-09-03T10:00:57;2.20;;;2.05;;
8177;SDS011;4130;48.740;9.132;2022-09-03T10:03:28;2.65;;;2.15;;
8177;SDS011;4130;48.740;9.132;2022-09-03T10:06:05;2.72;;;2.50;;
8177;SDS011;4130;48.740;9.132;2022-09-03T10:08:52;5.88;;;2.50;;
8177;SDS011;4130;48.740;9.132;2022-09-03T10:11:31;2.53;;;2.33;;
8177;SDS011;4130;48.740;9.132;2022-09-03T10:14:04;3.25;;;2.10;;
8177;SDS011;4130;48.740;9.132;2022-09-03T10:16:34;2.97;;;2.05;;
8177;SDS011;4130;48.740;9.132;2022-09-03T10:19:08;2.50;;;2.30;;
8177;SDS011;4130;48.740;9.132;2022-09-03T10:21:42;2.30;;;2.10;;
8177;SDS011;4130;48.740;9.132;2022-09-03T10:24:26;1.98;;;1.83;;
8177;SDS011;4130;48.740;9.132;2022-09-03T10:27:03;2.20;;;2.00;;
8177;SDS011;4130;48.740;9.132;2022-09-03T10:29:34;2.50;;;2.00;;
8177;SDS011;4130;48.740;9.132;2022-09-03T10:32:11;2.15;;;2.05;;
8177;SDS011;4130;48.740;9.132;2022-09-03T10:34:49;2.53;;;2.33;;
8177;SDS011;4130;48.740;9.132;2022-09-03T10:37:28;2.20;;;2.00;;
8177;SDS011;4130;48.740;9.132;2022-09-03T10:40:10;2.65;;;2.33;;
8177;SDS011;4130;48.740;9.132;2022-09-03T10:45:48;3.83;;;2.22;;
8177;SDS011;4130;48.740;9.132;2022-09-03T10:48:38;2.45;;;2.25;;
8177;SDS011;4130;48.740;9.132;2022-09-03T10:51:13;5.50;;;2.60;;
8177;SDS011;4130;48.740;9.132;2022-09-03T10:53:48;2.20;;;2.03;;
8177;SDS011;4130;48.740;9.132;2022-09-03T10:56:29;4.55;;;2.50;;
8177;SDS011;4130;48.740;9.132;2022-09-03T10:59:05;2.45;;;2.25;;
8177;SDS011;4130;48.740;9.132;2022-09-03T11:01:50;3.08;;;2.47;;
8177;SDS011;4130;48.740;9.132;2022-09-03T11:04:27;2.53;;;2.35;;
8177;SDS011;4130;48.740;9.132;2022-09-03T11:07:11;2.60;;;2.40;;
8177;SDS011;4130;48.740;9.132;2022-09-03T11:09:39;3.53;;;2.15;;
8177;SDS011;4130;48.740;9.132;2022-09-03T11:12:10;2.53;;;2.33;;
8177;SDS011;4130;48.740;9.132;2022-09-03T11:14:47;5.35;;;2.65;;
8177;SDS011;4130;48.740;9.132;2022-09-03T11:17:20;3.03;;;2.70;;
8177;SDS011;4130;48.740;9.132;2022-09-03T11:19:51;4.03;;;2.55;;
8177;SDS011;4130;48.740;9.132;2022-09-03T11:22:24;2.65;;;2.45;;
8177;SDS011;4130;48.740;9.132;2022-09-03T11:24:54;2.92;;;2.40;;
8177;SDS011;4130;48.740;9.132;2022-09-03T11:27:28;2.95;;;2.65;;
8177;SDS011;4130;48.740;9.132;2022-09-03T11:30:02;2.63;;;2.42;;
8177;SDS011;4130;48.740;9.132;2022-09-03T11:32:34;3.20;;;2.58;;
8177;SDS011;4130;48.740;9.132;2022-09-03T11:35:12;3.17;;;2.47;;
8177;SDS011;4130;48.740;9.132;2022-09-03T11:37:45;2.85;;;2.65;;
8177;SDS011;4130;48.740;9.132;2022-09-03T11:40:18;2.38;;;2.17;;
8177;SDS011;4130;48.740;9.132;2022-09-03T11:42:46;2.80;;;2.53;;
8177;SDS011;4130;48.740;9.132;2022-09-03T11:45:19;3.22;;;2.80;;
8177;SDS011;4130;48.740;9.132;2022-09-03T11:47:48;4.88;;;2.70;;
8177;SDS011;4130;48.740;9.132;2022-09-03T11:50:18;5.25;;;2.75;;
8177;SDS011;4130;48.740;9.132;2022-09-03T11:52:48;2.70;;;2.50;;
8177;SDS011;4130;48.740;9.132;2022-09-03T11:55:24;3.05;;;2.40;;
8177;SDS011;4130;48.740;9.132;2022-09-03T11:57:54;4.05;;;2.25;;
8177;SDS011;4130;48.740;9.132;2022-09-03T12:00:22;2.63;;;2.35;;
8177;SDS011;4130;48.740;9.132;2022-09-03T12:02:51;3.55;;;2.40;;
8177;SDS011;4130;48.740;9.132;2022-09-03T12:05:24;3.00;;;2.47;;
8177;SDS011;4130;48.740;9.132;2022-09-03T12:08:15;2.70;;;2.50;;
8177;SDS011;4130;48.740;9.132;2022-09-03T12:11:09;3.03;;;2.67;;
8177;SDS011;4130;48.740;9.132;2022-09-03T12:13:50;7.75;;;4.82;;
8177;SDS011;4130;48.740;9.132;2022-09-03T12:19:20;3.20;;;2.90;;
8177;SDS011;4130;48.740;9.132;2022-09-03T12:21:54;5.57;;;3.47;;
8177;SDS011;4130;48.740;9.132;2022-09-03T12:24:23;6.20;;;2.83;;
8177;SDS011;4130;48.740;9.132;2022-09-03T12:26:56;3.28;;;2.53;;
8177;SDS011;4130;48.740;9.132;2022-09-03T12:29:25;3.65;;;2.40;;
8177;SDS011;4130;48.740;9.132;2022-09-03T12:31:53;2.67;;;2.47;;
8177;SDS011;4130;48.740;9.132;2022-09-03T12:34:21;3.15;;;2.25;;
8177;SDS011;4130;48.740;9.132;2022-09-03T12:36:50;2.53;;;2.08;;
8177;SDS011;4130;48.740;9.132;2022-09-03T12:39:18;2.03;;;1.77;;
8177;SDS011;4130;48.740;9.132;2022-09-03T12:41:59;1.63;;;1.52;;
8177;SDS011;4130;48.740;9.132;2022-09-03T12:44:28;2.60;;;1.60;;
8177;SDS011;4130;48.740;9.132;2022-09-03T12:47:00;1.60;;;1.50;;
8177;SDS011;4130;48.740;9.132;2022-09-03T12:49:33;2.22;;;1.70;;
8177;SDS011;4130;48.740;9.132;2022-09-03T12:52:01;1.75;;;1.40;;
8177;SDS011;4130;48.740;9.132;2022-09-03T12:54:33;1.60;;;1.50;;
8177;SDS011;4130;48.740;9.132;2022-09-03T12:57:03;1.50;;;1.40;;
8177;SDS011;4130;48.740;9.132;2022-09-03T12:59:30;2.38;;;1.50;;
8177;SDS011;4130;48.740;9.132;2022-09-03T13:02:00;1.60;;;1.50;;
8177;SDS011;4130;48.740;9.132;2022-09-03T13:04:32;2.70;;;1.38;;
8177;SDS011;4130;48.740;9.132;2022-09-03T13:07:02;1.52;;;1.42;;
8177;SDS011;4130;48.740;9.132;2022-09-03T13:09:33;1.90;;;1.70;;
8177;SDS011;4130;48.740;9.132;2022-09-03T13:12:04;1.60;;;1.50;;
8177;SDS011;4130;48.740;9.132;2022-09-03T13:14:40;2.13;;;1.65;;
8177;SDS011;4130;48.740;9.132;2022-09-03T13:17:10;1.60;;;1.50;;
8177;SDS011;4130;48.740;9.132;2022-09-03T13:19:57;4.88;;;1.85;;
8177;SDS011;4130;48.740;9.132;2022-09-03T13:22:38;2.17;;;1.90;;
8177;SDS011;4130;48.740;9.132;2022-09-03T13:25:19;2.13;;;1.70;;
8177;SDS011;4130;48.740;9.132;2022-09-03T13:27:53;3.35;;;1.50;;
8177;SDS011;4130;48.740;9.132;2022-09-03T13:30:28;1.42;;;1.30;;
8177;SDS011;4130;48.740;9.132;2022-09-03T13:33:00;1.67;;;1.25;;
8177;SDS011;4130;48.740;9.132;2022-09-03T13:35:32;2.50;;;1.23;;
8177;SDS011;4130;48.740;9.132;2022-09-03T13:38:04;2.08;;;1.13;;
8177;SDS011;4130;48.740;9.132;2022-09-03T13:40:40;3.40;;;1.38;;
8177;SDS011;4130;48.740;9.132;2022-09-03T13:43:18;2.42;;;1.55;;
8177;SDS011;4130;48.740;9.132;2022-09-03T13:45:52;2.00;;;1.48;;
8177;SDS011;4130;48.740;9.132;2022-09-03T13:48:24;2.08;;;1.40;;
8177;SDS011;4130;48.740;9.132;2022-09-03T13:51:14;2.15;;;1.40;;
8177;SDS011;4130;48.740;9.132;2022-09-03T13:53:49;1.70;;;1.60;;
8177;SDS011;4130;48.740;9.132;2022-09-03T13:56:27;1.30;;;1.20;;
8177;SDS011;4130;48.740;9.132;2022-09-03T13:59:04;2.47;;;1.13;;
8177;SDS011;4130;48.740;9.132;2022-09-03T14:01:42;1.58;;;1.40;;
8177;SDS011;4130;48.740;9.132;2022-09-03T14:04:21;1.35;;;1.27;;
8177;SDS011;4130;48.740;9.132;2022-09-03T14:06:56;3.58;;;1.33;;
8177;SDS011;4130;48.740;9.132;2022-09-03T14:09:29;1.45;;;1.35;;
8177;SDS011;4130;48.740;9.132;2022-09-03T14:12:04;2.65;;;1.40;;
8177;SDS011;4130;48.740;9.132;2022-09-03T14:14:50;1.73;;;1.63;;
8177;SDS011;4130;48.740;9.132;2022-09-03T14:17:22;2.92;;;1.25;;
8177;SDS011;4130;48.740;9.132;2022-09-03T14:19:58;1.40;;;1.30;;
8177;SDS011;4130;48.740;9.132;2022-09-03T14:22:28;2.50;;;1.02;;
8177;SDS011;4130;48.740;9.132;2022-09-03T14:25:08;1.38;;;1.27;;
8177;SDS011;4130;48.740;9.132;2022-09-03T14:27:38;1.42;;;1.33;;
8177;SDS011;4130;48.740;9.132;2022-09-03T14:30:16;1.45;;;1.20;;
8177;SDS011;4130;48.740;9.132;2022-09-03T14:32:50;1.00;;;1.00;;
8177;SDS011;4130;48.740;9.132;2022-09-03T14:35:30;1.27;;;1.17;;
8177;SDS011;4130;48.740;9.132;2022-09-03T14:38:21;1.13;;;1.10;;
8177;SDS011;4130;48.740;9.132;2022-09-03T14:41:00;1.48;;;1.30;;
8177;SDS011;4130;48.740;9.132;2022-09-03T14:43:42;0.90;;;0.90;;
8177;SDS011;4130;48.740;9.132;2022-09-03T14:46:38;1.75;;;1.38;;
8177;SDS011;4130;48.740;9.132;2022-09-03T14:49:29;1.83;;;1.20;;
8177;SDS011;4130;48.740;9.132;2022-09-03T14:52:14;1.48;;;1.27;;
8177;SDS011;4130;48.740;9.132;2022-09-03T14:55:01;1.70;;;1.20;;
8177;SDS011;4130;48.740;9.132;2022-09-03T14:57:43;1.58;;;1.13;;
8177;SDS011;4130;48.740;9.132;2022-09-03T15:00:19;3.60;;;1.30;;
8177;SDS011;4130;48.740;9.132;2022-09-03T15:03:02;1.42;;;1.20;;
8177;SDS011;4130;48.740;9.132;2022-09-03T15:05:56;1.17;;;1.17;;
8177;SDS011;4130;48.740;9.132;2022-09-03T15:08:35;1.02;;;1.00;;
8177;SDS011;4130;48.740;9.132;2022-09-03T15:11:13;1.55;;;1.15;;
8177;SDS011;4130;48.740;9.132;2022-09-03T15:13:44;1.08;;;0.88;;
8177;SDS011;4130;48.740;9.132;2022-09-03T15:16:18;2.50;;;1.23;;
8177;SDS011;4130;48.740;9.132;2022-09-03T15:18:59;1.40;;;1.30;;
8177;SDS011;4130;48.740;9.132;2022-09-03T15:21:45;1.95;;;1.35;;
8177;SDS011;4130;48.740;9.132;2022-09-03T15:24:26;1.52;;;1.20;;
8177;SDS011;4130;48.740;9.132;2022-09-03T15:27:09;1.20;;;1.20;;
8177;SDS011;4130;48.740;9.132;2022-09-03T15:29:55;1.42;;;1.30;;
8177;SDS011;4130;48.740;9.132;2022-09-03T15:32:35;2.60;;;1.30;;
8177;SDS011;4130;48.740;9.132;2022-09-03T15:35:17;1.33;;;1.30;;
8177;SDS011;4130;48.740;9.132;2022-09-03T15:37:58;1.20;;;1.10;;
8177;SDS011;4130;48.740;9.132;2022-09-03T15:40:30;1.13;;;1.13;;
8177;SDS011;4130;48.740;9.132;2022-09-03T15:43:02;1.58;;;1.27;;
8177;SDS011;4130;48.740;9.132;2022-09-03T15:45:34;1.33;;;1.27;;
8177;SDS011;4130;48.740;9.132;2022-09-03T15:48:06;1.40;;;1.30;;
8177;SDS011;4130;48.740;9.132;2022-09-03T15:50:48;1.80;;;1.50;;
8177;SDS011;4130;48.740;9.132;2022-09-03T15:53:20;1.40;;;1.30;;
8177;SDS011;4130;48.740;9.132;2022-09-03T15:56:00;1.23;;;1.20;;
8177;SDS011;4130;48.740;9.132;2022-09-03T15:58:33;1.77;;;1.40;;
8177;SDS011;4130;48.740;9.132;2022-09-03T16:01:05;1.83;;;1.40;;
8177;SDS011;4130;48.740;9.132;2022-09-03T16:03:38;3.95;;;1.48;;